sensor_id;sensor_type;location;lat;lon;timestamp;temperature;humidity
3919;DHT22;1974;48.670;8.994;2023-10-13T00:01:02;18.50;99.90
3919;DHT22;1974;48.670;8.994;2023-10-13T00:03:32;18.50;99.80
3919;DHT22;1974;48.670;8.994;2023-10-13T00:05:59;18.40;99.90
3919;DHT22;1974;48.670;8.994;2023-10-13T00:08:29;18.40;99.70
3919;DHT22;1974;48.670;8.994;2023-10-13T00:10:56;18.40;99.90
3919;DHT22;1974;48.670;8.994;2023-10-13T00:13:26;18.30;99.60
3919;DHT22;1974;48.670;8.994;2023-10-13T00:15:55;18.20;99.90
3919;DHT22;1974;48.670;8.994;2023-10-13T00:18:24;18.20;99.50
3919;DHT22;1974;48.670;8.994;2023-10-13T00:20:53;18.10;99.90
3919;DHT22;1974;48.670;8.994;2023-10-13T00:23:22;18.10;99.90
3919;DHT22;1974;48.670;8.994;2023-10-13T00:25:52;18.10;99.90
3919;DHT22;1974;48.670;8.994;2023-10-13T00:28:29;18.00;99.90
3919;DHT22;1974;48.670;8.994;2023-10-13T00:31:09;18.00;99.90
3919;DHT22;1974;48.670;8.994;2023-10-13T00:33:37;18.00;99.90
3919;DHT22;1974;48.670;8.994;2023-10-13T00:36:04;17.90;99.90
3919;DHT22;1974;48.670;8.994;2023-10-13T00:38:33;17.90;99.90
3919;DHT22;1974;48.670;8.994;2023-10-13T00:41:00;17.90;99.90
3919;DHT22;1974;48.670;8.994;2023-10-13T00:43:33;17.80;99.90
3919;DHT22;1974;48.670;8.994;2023-10-13T00:46:03;17.80;99.90
3919;DHT22;1974;48.670;8.994;2023-10-13T00:48:36;17.70;99.90
3919;DHT22;1974;48.670;8.994;2023-10-13T00:51:17;17.70;99.90
3919;DHT22;1974;48.670;8.994;2023-10-13T00:53:47;17.70;99.90
3919;DHT22;1974;48.670;8.994;2023-10-13T00:56:14;17.60;99.90
3919;DHT22;1974;48.670;8.994;2023-10-13T00:58:48;17.60;99.90
3919;DHT22;1974;48.670;8.994;2023-10-13T01:01:17;17.60;99.90
3919;DHT22;1974;48.670;8.994;2023-10-13T01:03:45;17.60;99.90
3919;DHT22;1974;48.670;8.994;2023-10-13T01:06:15;17.60;99.90
3919;DHT22;1974;48.670;8.994;2023-10-13T01:08:43;17.70;99.90
3919;DHT22;1974;48.670;8.994;2023-10-13T01:11:10;17.60;99.90
3919;DHT22;1974;48.670;8.994;2023-10-13T01:13:36;17.60;99.90
3919;DHT22;1974;48.670;8.994;2023-10-13T01:16:03;17.50;99.90
3919;DHT22;1974;48.670;8.994;2023-10-13T01:18:30;17.50;99.90
3919;DHT22;1974;48.670;8.994;2023-10-13T01:20:58;17.50;99.90
3919;DHT22;1974;48.670;8.994;2023-10-13T01:23:26;17.40;99.90
3919;DHT22;1974;48.670;8.994;2023-10-13T01:25:54;17.40;99.90
3919;DHT22;1974;48.670;8.994;2023-10-13T01:28:20;17.50;99.90
3919;DHT22;1974;48.670;8.994;2023-10-13T01:30:47;17.40;99.90
3919;DHT22;1974;48.670;8.994;2023-10-13T01:33:15;17.30;99.90
3919;DHT22;1974;48.670;8.994;2023-10-13T01:35:42;17.30;99.90
3919;DHT22;1974;48.670;8.994;2023-10-13T01:38:13;17.30;99.90
3919;DHT22;1974;48.670;8.994;2023-10-13T01:40:41;17.20;99.90
3919;DHT22;1974;48.670;8.994;2023-10-13T01:43:08;17.20;99.90
3919;DHT22;1974;48.670;8.994;2023-10-13T01:45:37;17.10;99.90
3919;DHT22;1974;48.670;8.994;2023-10-13T01:48:05;17.10;99.90
3919;DHT22;1974;48.670;8.994;2023-10-13T01:50:35;17.00;99.90
3919;DHT22;1974;48.670;8.994;2023-10-13T01:53:01;17.00;99.90
3919;DHT22;1974;48.670;8.994;2023-10-13T01:55:38;16.90;99.90
3919;DHT22;1974;48.670;8.994;2023-10-13T01:58:10;16.90;99.90
3919;DHT22;1974;48.670;8.994;2023-10-13T02:00:40;16.80;99.90
3919;DHT22;1974;48.670;8.994;2023-10-13T02:03:08;16.80;99.90
3919;DHT22;1974;48.670;8.994;2023-10-13T02:05:40;16.80;99.90
3919;DHT22;1974;48.670;8.994;2023-10-13T02:08:12;16.80;99.90
3919;DHT22;1974;48.670;8.994;2023-10-13T02:10:43;16.80;99.90
3919;DHT22;1974;48.670;8.994;2023-10-13T02:13:14;16.80;99.90
3919;DHT22;1974;48.670;8.994;2023-10-13T02:15:44;16.80;99.90
3919;DHT22;1974;48.670;8.994;2023-10-13T02:18:14;16.70;99.90
3919;DHT22;1974;48.670;8.994;2023-10-13T02:20:46;16.70;99.90
3919;DHT22;1974;48.670;8.994;2023-10-13T02:23:20;16.70;99.90
3919;DHT22;1974;48.670;8.994;2023-10-13T02:25:46;16.70;99.90
3919;DHT22;1974;48.670;8.994;2023-10-13T02:28:14;16.70;99.90
3919;DHT22;1974;48.670;8.994;2023-10-13T02:30:40;17.00;99.90
3919;DHT22;1974;48.670;8.994;2023-10-13T02:33:11;16.70;99.90
3919;DHT22;1974;48.670;8.994;2023-10-13T02:35:38;16.70;99.90
3919;DHT22;1974;48.670;8.994;2023-10-13T02:38:09;16.80;99.90
3919;DHT22;1974;48.670;8.994;2023-10-13T02:40:39;16.80;99.90
3919;DHT22;1974;48.670;8.994;2023-10-13T02:43:05;16.80;99.90
3919;DHT22;1974;48.670;8.994;2023-10-13T02:45:34;16.80;99.90
3919;DHT22;1974;48.670;8.994;2023-10-13T02:48:02;16.70;99.90
3919;DHT22;1974;48.670;8.994;2023-10-13T02:50:40;16.80;99.90
3919;DHT22;1974;48.670;8.994;2023-10-13T02:53:09;16.70;99.90
3919;DHT22;1974;48.670;8.994;2023-10-13T02:55:48;16.70;99.90
3919;DHT22;1974;48.670;8.994;2023-10-13T02:58:14;16.70;99.90
3919;DHT22;1974;48.670;8.994;2023-10-13T03:00:42;16.80;99.90
3919;DHT22;1974;48.670;8.994;2023-10-13T03:03:09;16.70;99.90
3919;DHT22;1974;48.670;8.994;2023-10-13T03:05:35;16.70;99.90
3919;DHT22;1974;48.670;8.994;2023-10-13T03:08:05;16.70;99.90
3919;DHT22;1974;48.670;8.994;2023-10-13T03:10:31;16.70;99.90
3919;DHT22;1974;48.670;8.994;2023-10-13T03:12:59;16.70;99.90
3919;DHT22;1974;48.670;8.994;2023-10-13T03:15:24;16.60;99.90
3919;DHT22;1974;48.670;8.994;2023-10-13T03:17:57;16.60;99.90
3919;DHT22;1974;48.670;8.994;2023-10-13T03:20:24;16.60;99.90
3919;DHT22;1974;48.670;8.994;2023-10-13T03:22:57;16.50;99.90
3919;DHT22;1974;48.670;8.994;2023-10-13T03:25:23;16.50;99.90
3919;DHT22;1974;48.670;8.994;2023-10-13T03:27:55;16.50;99.90
3919;DHT22;1974;48.670;8.994;2023-10-13T03:30:27;16.50;99.90
3919;DHT22;1974;48.670;8.994;2023-10-13T03:33:02;16.50;99.90
3919;DHT22;1974;48.670;8.994;2023-10-13T03:35:33;16.50;99.90
3919;DHT22;1974;48.670;8.994;2023-10-13T03:38:05;16.40;99.90
3919;DHT22;1974;48.670;8.994;2023-10-13T03:40:37;16.40;99.90
3919;DHT22;1974;48.670;8.994;2023-10-13T03:43:05;16.50;99.90
3919;DHT22;1974;48.670;8.994;2023-10-13T03:45:36;16.40;99.90
3919;DHT22;1974;48.670;8.994;2023-10-13T03:48:06;16.40;99.90
3919;DHT22;1974;48.670;8.994;2023-10-13T03:50:37;16.40;99.90
3919;DHT22;1974;48.670;8.994;2023-10-13T03:53:11;16.40;99.90
3919;DHT22;1974;48.670;8.994;2023-10-13T03:55:39;16.40;99.90
3919;DHT22;1974;48.670;8.994;2023-10-13T03:58:06;16.40;99.90
3919;DHT22;1974;48.670;8.994;2023-10-13T04:00:36;16.40;99.90
3919;DHT22;1974;48.670;8.994;2023-10-13T04:03:03;16.40;99.90
3919;DHT22;1974;48.670;8.994;2023-10-13T04:05:36;16.40;99.90
3919;DHT22;1974;48.670;8.994;2023-10-13T04:08:06;16.40;99.90
3919;DHT22;1974;48.670;8.994;2023-10-13T04:10:52;16.30;99.90
3919;DHT22;1974;48.670;8.994;2023-10-13T04:13:36;16.30;99.90
3919;DHT22;1974;48.670;8.994;2023-10-13T04:16:21;16.20;99.90
3919;DHT22;1974;48.670;8.994;2023-10-13T04:19:04;16.20;99.90
3919;DHT22;1974;48.670;8.994;2023-10-13T04:21:36;16.20;99.90
3919;DHT22;1974;48.670;8.994;2023-10-13T04:24:08;16.20;99.90
3919;DHT22;1974;48.670;8.994;2023-10-13T04:26:49;16.10;99.90
3919;DHT22;1974;48.670;8.994;2023-10-13T04:29:46;16.10;99.90
3919;DHT22;1974;48.670;8.994;2023-10-13T04:32:16;16.10;99.90
3919;DHT22;1974;48.670;8.994;2023-10-13T04:34:54;16.00;99.90
3919;DHT22;1974;48.670;8.994;2023-10-13T04:37:25;16.00;99.90
3919;DHT22;1974;48.670;8.994;2023-10-13T04:39:55;16.00;99.90
3919;DHT22;1974;48.670;8.994;2023-10-13T04:42:25;16.00;99.90
3919;DHT22;1974;48.670;8.994;2023-10-13T04:45:15;16.00;99.90
3919;DHT22;1974;48.670;8.994;2023-10-13T04:48:04;16.00;99.90
3919;DHT22;1974;48.670;8.994;2023-10-13T04:50:45;15.90;99.90
3919;DHT22;1974;48.670;8.994;2023-10-13T04:53:14;15.90;99.90
3919;DHT22;1974;48.670;8.994;2023-10-13T04:55:56;15.90;99.90
3919;DHT22;1974;48.670;8.994;2023-10-13T04:58:49;15.80;99.90
3919;DHT22;1974;48.670;8.994;2023-10-13T05:01:33;15.80;99.90
3919;DHT22;1974;48.670;8.994;2023-10-13T05:04:36;15.70;99.90
3919;DHT22;1974;48.670;8.994;2023-10-13T05:07:24;15.70;99.90
3919;DHT22;1974;48.670;8.994;2023-10-13T05:10:10;15.60;99.90
3919;DHT22;1974;48.670;8.994;2023-10-13T05:12:54;15.60;99.90
3919;DHT22;1974;48.670;8.994;2023-10-13T05:15:43;15.60;99.90
3919;DHT22;1974;48.670;8.994;2023-10-13T05:18:27;15.60;99.90
3919;DHT22;1974;48.670;8.994;2023-10-13T05:21:11;15.60;99.90
3919;DHT22;1974;48.670;8.994;2023-10-13T05:23:55;15.60;99.90
3919;DHT22;1974;48.670;8.994;2023-10-13T05:26:41;15.60;99.90
3919;DHT22;1974;48.670;8.994;2023-10-13T05:29:25;15.60;99.90
3919;DHT22;1974;48.670;8.994;2023-10-13T05:32:09;15.60;99.90
3919;DHT22;1974;48.670;8.994;2023-10-13T05:34:53;15.70;99.90
3919;DHT22;1974;48.670;8.994;2023-10-13T05:37:38;15.70;99.90
3919;DHT22;1974;48.670;8.994;2023-10-13T05:40:22;15.60;99.90
3919;DHT22;1974;48.670;8.994;2023-10-13T05:43:07;15.60;99.90
3919;DHT22;1974;48.670;8.994;2023-10-13T05:45:51;15.60;99.90
3919;DHT22;1974;48.670;8.994;2023-10-13T05:48:35;15.50;99.90
3919;DHT22;1974;48.670;8.994;2023-10-13T05:51:29;15.50;99.90
3919;DHT22;1974;48.670;8.994;2023-10-13T05:53:58;15.50;99.90
3919;DHT22;1974;48.670;8.994;2023-10-13T05:56:50;15.50;99.90
3919;DHT22;1974;48.670;8.994;2023-10-13T05:59:37;15.50;99.90
3919;DHT22;1974;48.670;8.994;2023-10-13T06:02:23;15.50;99.90
3919;DHT22;1974;48.670;8.994;2023-10-13T06:05:08;15.70;99.90
3919;DHT22;1974;48.670;8.994;2023-10-13T06:07:53;15.70;99.90
3919;DHT22;1974;48.670;8.994;2023-10-13T06:10:38;15.80;99.90
3919;DHT22;1974;48.670;8.994;2023-10-13T06:13:23;15.90;99.90
3919;DHT22;1974;48.670;8.994;2023-10-13T06:16:10;15.90;99.90
3919;DHT22;1974;48.670;8.994;2023-10-13T06:18:54;16.00;99.90
3919;DHT22;1974;48.670;8.994;2023-10-13T06:21:38;16.10;99.90
3919;DHT22;1974;48.670;8.994;2023-10-13T06:24:23;16.20;99.90
3919;DHT22;1974;48.670;8.994;2023-10-13T06:27:08;16.30;99.90
3919;DHT22;1974;48.670;8.994;2023-10-13T06:29:52;16.30;99.90
3919;DHT22;1974;48.670;8.994;2023-10-13T06:32:20;16.40;99.90
3919;DHT22;1974;48.670;8.994;2023-10-13T06:34:51;16.40;99.90
3919;DHT22;1974;48.670;8.994;2023-10-13T06:37:23;16.40;99.90
3919;DHT22;1974;48.670;8.994;2023-10-13T06:39:52;16.40;99.90
3919;DHT22;1974;48.670;8.994;2023-10-13T06:42:21;16.40;99.90
3919;DHT22;1974;48.670;8.994;2023-10-13T06:44:52;16.40;99.90
3919;DHT22;1974;48.670;8.994;2023-10-13T06:47:21;16.40;99.90
3919;DHT22;1974;48.670;8.994;2023-10-13T06:49:50;16.30;99.90
3919;DHT22;1974;48.670;8.994;2023-10-13T06:52:17;16.40;99.90
3919;DHT22;1974;48.670;8.994;2023-10-13T06:54:44;16.40;99.90
3919;DHT22;1974;48.670;8.994;2023-10-13T06:57:11;16.40;99.90
3919;DHT22;1974;48.670;8.994;2023-10-13T06:59:40;16.50;99.90
3919;DHT22;1974;48.670;8.994;2023-10-13T07:02:07;16.50;99.90
3919;DHT22;1974;48.670;8.994;2023-10-13T07:04:36;16.60;99.90
3919;DHT22;1974;48.670;8.994;2023-10-13T07:07:05;16.60;99.90
3919;DHT22;1974;48.670;8.994;2023-10-13T07:09:36;16.70;99.90
3919;DHT22;1974;48.670;8.994;2023-10-13T07:12:21;16.70;99.90
3919;DHT22;1974;48.670;8.994;2023-10-13T07:14:50;16.80;99.90
3919;DHT22;1974;48.670;8.994;2023-10-13T07:17:25;16.90;99.90
3919;DHT22;1974;48.670;8.994;2023-10-13T07:19:55;16.90;99.90
3919;DHT22;1974;48.670;8.994;2023-10-13T07:22:31;17.00;99.90
3919;DHT22;1974;48.670;8.994;2023-10-13T07:25:05;17.00;99.90
3919;DHT22;1974;48.670;8.994;2023-10-13T07:27:32;17.10;99.90
3919;DHT22;1974;48.670;8.994;2023-10-13T07:30:01;17.20;99.90
3919;DHT22;1974;48.670;8.994;2023-10-13T07:32:39;17.30;99.90
3919;DHT22;1974;48.670;8.994;2023-10-13T07:35:12;17.40;99.90
3919;DHT22;1974;48.670;8.994;2023-10-13T07:37:39;17.40;99.90
3919;DHT22;1974;48.670;8.994;2023-10-13T07:40:08;17.40;99.90
3919;DHT22;1974;48.670;8.994;2023-10-13T07:42:48;17.50;99.90
3919;DHT22;1974;48.670;8.994;2023-10-13T07:45:15;17.50;99.90
3919;DHT22;1974;48.670;8.994;2023-10-13T07:47:43;17.60;99.90
3919;DHT22;1974;48.670;8.994;2023-10-13T07:50:13;17.60;99.90
3919;DHT22;1974;48.670;8.994;2023-10-13T07:52:40;17.70;99.90
3919;DHT22;1974;48.670;8.994;2023-10-13T07:55:23;17.70;99.90
3919;DHT22;1974;48.670;8.994;2023-10-13T07:57:50;17.80;99.90
3919;DHT22;1974;48.670;8.994;2023-10-13T08:00:20;17.90;99.90
3919;DHT22;1974;48.670;8.994;2023-10-13T08:03:04;18.00;99.90
3919;DHT22;1974;48.670;8.994;2023-10-13T08:05:52;18.20;99.90
3919;DHT22;1974;48.670;8.994;2023-10-13T08:08:30;18.30;99.90
3919;DHT22;1974;48.670;8.994;2023-10-13T08:11:03;18.50;99.90
3919;DHT22;1974;48.670;8.994;2023-10-13T08:13:37;18.60;99.90
3919;DHT22;1974;48.670;8.994;2023-10-13T08:16:04;18.80;99.90
3919;DHT22;1974;48.670;8.994;2023-10-13T08:18:34;18.90;99.90
3919;DHT22;1974;48.670;8.994;2023-10-13T08:21:03;19.10;99.90
3919;DHT22;1974;48.670;8.994;2023-10-13T08:23:31;19.30;99.90
3919;DHT22;1974;48.670;8.994;2023-10-13T08:26:21;19.50;99.90
3919;DHT22;1974;48.670;8.994;2023-10-13T08:29:06;19.60;99.90
3919;DHT22;1974;48.670;8.994;2023-10-13T08:31:47;19.80;99.50
3919;DHT22;1974;48.670;8.994;2023-10-13T08:34:30;19.90;99.50
3919;DHT22;1974;48.670;8.994;2023-10-13T08:37:05;20.10;99.30
3919;DHT22;1974;48.670;8.994;2023-10-13T08:39:45;20.40;98.70
3919;DHT22;1974;48.670;8.994;2023-10-13T08:42:45;20.70;98.60
3919;DHT22;1974;48.670;8.994;2023-10-13T08:45:37;21.00;98.20
3919;DHT22;1974;48.670;8.994;2023-10-13T08:48:26;21.40;97.20
3919;DHT22;1974;48.670;8.994;2023-10-13T08:50:58;21.80;96.60
3919;DHT22;1974;48.670;8.994;2023-10-13T08:53:32;22.30;96.40
3919;DHT22;1974;48.670;8.994;2023-10-13T08:56:10;23.10;95.30
3919;DHT22;1974;48.670;8.994;2023-10-13T08:58:42;24.10;93.90
3919;DHT22;1974;48.670;8.994;2023-10-13T09:01:32;24.90;93.00
3919;DHT22;1974;48.670;8.994;2023-10-13T09:04:06;25.50;92.20
3919;DHT22;1974;48.670;8.994;2023-10-13T09:06:49;25.80;90.70
3919;DHT22;1974;48.670;8.994;2023-10-13T09:09:49;26.20;90.80
3919;DHT22;1974;48.670;8.994;2023-10-13T09:12:37;26.30;89.80
3919;DHT22;1974;48.670;8.994;2023-10-13T09:15:07;26.20;90.00
3919;DHT22;1974;48.670;8.994;2023-10-13T09:17:46;26.30;88.80
3919;DHT22;1974;48.670;8.994;2023-10-13T09:20:27;26.30;88.90
3919;DHT22;1974;48.670;8.994;2023-10-13T09:22:58;26.30;87.90
3919;DHT22;1974;48.670;8.994;2023-10-13T09:25:36;26.40;88.10
3919;DHT22;1974;48.670;8.994;2023-10-13T09:28:10;26.80;86.40
3919;DHT22;1974;48.670;8.994;2023-10-13T09:30:44;27.00;85.20
3919;DHT22;1974;48.670;8.994;2023-10-13T09:33:10;27.20;85.70
3919;DHT22;1974;48.670;8.994;2023-10-13T09:35:43;27.50;85.10
3919;DHT22;1974;48.670;8.994;2023-10-13T09:38:14;27.50;82.70
3919;DHT22;1974;48.670;8.994;2023-10-13T09:40:43;27.60;82.70
3919;DHT22;1974;48.670;8.994;2023-10-13T09:43:16;27.80;82.10
3919;DHT22;1974;48.670;8.994;2023-10-13T09:45:45;27.80;81.70
3919;DHT22;1974;48.670;8.994;2023-10-13T09:48:31;28.10;81.60
3919;DHT22;1974;48.670;8.994;2023-10-13T09:51:00;28.20;78.00
3919;DHT22;1974;48.670;8.994;2023-10-13T09:53:27;28.20;78.80
3919;DHT22;1974;48.670;8.994;2023-10-13T09:56:00;28.00;77.50
3919;DHT22;1974;48.670;8.994;2023-10-13T09:58:38;27.70;75.80
3919;DHT22;1974;48.670;8.994;2023-10-13T10:01:17;27.40;76.90
3919;DHT22;1974;48.670;8.994;2023-10-13T10:03:47;27.50;77.10
3919;DHT22;1974;48.670;8.994;2023-10-13T10:06:23;27.10;75.40
3919;DHT22;1974;48.670;8.994;2023-10-13T10:09:04;27.10;77.40
3919;DHT22;1974;48.670;8.994;2023-10-13T10:11:57;27.10;76.10
3919;DHT22;1974;48.670;8.994;2023-10-13T10:14:35;27.30;75.70
3919;DHT22;1974;48.670;8.994;2023-10-13T10:17:07;27.80;75.10
3919;DHT22;1974;48.670;8.994;2023-10-13T10:19:46;28.10;75.60
3919;DHT22;1974;48.670;8.994;2023-10-13T10:22:13;28.40;74.00
3919;DHT22;1974;48.670;8.994;2023-10-13T10:24:43;28.60;74.70
3919;DHT22;1974;48.670;8.994;2023-10-13T10:27:12;28.50;71.90
3919;DHT22;1974;48.670;8.994;2023-10-13T10:29:40;29.10;73.50
3919;DHT22;1974;48.670;8.994;2023-10-13T10:32:19;29.90;70.50
3919;DHT22;1974;48.670;8.994;2023-10-13T10:34:45;30.90;67.20
3919;DHT22;1974;48.670;8.994;2023-10-13T10:37:13;31.70;65.20
3919;DHT22;1974;48.670;8.994;2023-10-13T10:39:40;31.70;62.20
3919;DHT22;1974;48.670;8.994;2023-10-13T10:42:14;31.40;62.60
3919;DHT22;1974;48.670;8.994;2023-10-13T10:44:50;30.90;63.30
3919;DHT22;1974;48.670;8.994;2023-10-13T10:47:21;30.20;63.50
3919;DHT22;1974;48.670;8.994;2023-10-13T10:49:56;29.20;63.40
3919;DHT22;1974;48.670;8.994;2023-10-13T10:52:23;28.50;66.70
3919;DHT22;1974;48.670;8.994;2023-10-13T10:55:00;27.80;67.20
3919;DHT22;1974;48.670;8.994;2023-10-13T10:57:31;27.30;69.60
3919;DHT22;1974;48.670;8.994;2023-10-13T11:00:03;27.00;69.60
3919;DHT22;1974;48.670;8.994;2023-10-13T11:02:37;26.80;70.40
3919;DHT22;1974;48.670;8.994;2023-10-13T11:05:05;26.70;71.20
3919;DHT22;1974;48.670;8.994;2023-10-13T11:07:32;26.60;71.60
3919;DHT22;1974;48.670;8.994;2023-10-13T11:10:07;26.60;71.90
3919;DHT22;1974;48.670;8.994;2023-10-13T11:12:38;26.50;73.00
3919;DHT22;1974;48.670;8.994;2023-10-13T11:15:07;26.40;71.20
3919;DHT22;1974;48.670;8.994;2023-10-13T11:17:40;26.30;72.50
3919;DHT22;1974;48.670;8.994;2023-10-13T11:20:17;26.10;73.80
3919;DHT22;1974;48.670;8.994;2023-10-13T11:22:51;26.00;73.50
3919;DHT22;1974;48.670;8.994;2023-10-13T11:25:22;25.90;73.40
3919;DHT22;1974;48.670;8.994;2023-10-13T11:27:56;25.80;71.40
3919;DHT22;1974;48.670;8.994;2023-10-13T11:30:26;25.80;71.70
3919;DHT22;1974;48.670;8.994;2023-10-13T11:33:08;25.80;73.50
3919;DHT22;1974;48.670;8.994;2023-10-13T11:35:36;25.90;72.20
3919;DHT22;1974;48.670;8.994;2023-10-13T11:38:20;25.90;72.30
3919;DHT22;1974;48.670;8.994;2023-10-13T11:40:56;25.90;71.60
3919;DHT22;1974;48.670;8.994;2023-10-13T11:43:36;25.90;74.00
3919;DHT22;1974;48.670;8.994;2023-10-13T11:46:19;25.90;72.10
3919;DHT22;1974;48.670;8.994;2023-10-13T11:49:18;25.90;72.10
3919;DHT22;1974;48.670;8.994;2023-10-13T11:51:47;25.80;72.70
3919;DHT22;1974;48.670;8.994;2023-10-13T11:54:14;25.80;72.20
3919;DHT22;1974;48.670;8.994;2023-10-13T11:56:41;25.70;72.10
3919;DHT22;1974;48.670;8.994;2023-10-13T11:59:09;25.70;73.20
3919;DHT22;1974;48.670;8.994;2023-10-13T12:01:44;25.60;72.30
3919;DHT22;1974;48.670;8.994;2023-10-13T12:04:25;25.60;71.80
3919;DHT22;1974;48.670;8.994;2023-10-13T12:07:06;25.50;71.00
3919;DHT22;1974;48.670;8.994;2023-10-13T12:09:43;25.40;71.60
3919;DHT22;1974;48.670;8.994;2023-10-13T12:12:29;25.30;72.90
3919;DHT22;1974;48.670;8.994;2023-10-13T12:14:58;25.20;74.00
3919;DHT22;1974;48.670;8.994;2023-10-13T12:17:35;25.20;72.80
3919;DHT22;1974;48.670;8.994;2023-10-13T12:20:07;25.20;72.10
3919;DHT22;1974;48.670;8.994;2023-10-13T12:22:36;25.20;72.90
3919;DHT22;1974;48.670;8.994;2023-10-13T12:25:05;25.10;72.40
3919;DHT22;1974;48.670;8.994;2023-10-13T12:27:44;25.10;72.70
3919;DHT22;1974;48.670;8.994;2023-10-13T12:30:15;25.10;73.30
3919;DHT22;1974;48.670;8.994;2023-10-13T12:32:48;25.00;73.90
3919;DHT22;1974;48.670;8.994;2023-10-13T12:35:24;25.00;75.60
3919;DHT22;1974;48.670;8.994;2023-10-13T12:37:55;24.90;75.30
3919;DHT22;1974;48.670;8.994;2023-10-13T12:40:30;24.80;75.80
3919;DHT22;1974;48.670;8.994;2023-10-13T12:43:14;24.80;73.80
3919;DHT22;1974;48.670;8.994;2023-10-13T12:46:00;24.90;74.30
3919;DHT22;1974;48.670;8.994;2023-10-13T12:48:44;24.80;74.70
3919;DHT22;1974;48.670;8.994;2023-10-13T12:51:29;24.80;73.10
3919;DHT22;1974;48.670;8.994;2023-10-13T12:54:16;24.70;73.50
3919;DHT22;1974;48.670;8.994;2023-10-13T12:56:48;24.70;75.50
3919;DHT22;1974;48.670;8.994;2023-10-13T12:59:22;24.70;72.50
3919;DHT22;1974;48.670;8.994;2023-10-13T13:01:53;24.70;74.30
3919;DHT22;1974;48.670;8.994;2023-10-13T13:04:21;24.70;74.80
3919;DHT22;1974;48.670;8.994;2023-10-13T13:06:48;24.70;73.10
3919;DHT22;1974;48.670;8.994;2023-10-13T13:09:15;24.90;74.30
3919;DHT22;1974;48.670;8.994;2023-10-13T13:11:51;24.60;73.50
3919;DHT22;1974;48.670;8.994;2023-10-13T13:14:18;24.60;73.50
3919;DHT22;1974;48.670;8.994;2023-10-13T13:16:44;24.60;74.60
3919;DHT22;1974;48.670;8.994;2023-10-13T13:19:15;24.50;72.90
3919;DHT22;1974;48.670;8.994;2023-10-13T13:21:49;24.60;73.60
3919;DHT22;1974;48.670;8.994;2023-10-13T13:24:19;24.60;71.80
3919;DHT22;1974;48.670;8.994;2023-10-13T13:26:46;24.60;71.70
3919;DHT22;1974;48.670;8.994;2023-10-13T13:29:13;24.70;70.80
3919;DHT22;1974;48.670;8.994;2023-10-13T13:31:41;24.70;70.80
3919;DHT22;1974;48.670;8.994;2023-10-13T13:34:09;24.70;71.10
3919;DHT22;1974;48.670;8.994;2023-10-13T13:36:39;24.70;71.70
3919;DHT22;1974;48.670;8.994;2023-10-13T13:39:10;24.60;70.50
3919;DHT22;1974;48.670;8.994;2023-10-13T13:41:36;24.70;71.10
3919;DHT22;1974;48.670;8.994;2023-10-13T13:44:03;24.50;71.20
3919;DHT22;1974;48.670;8.994;2023-10-13T13:46:39;24.60;69.00
3919;DHT22;1974;48.670;8.994;2023-10-13T13:49:08;24.60;69.70
3919;DHT22;1974;48.670;8.994;2023-10-13T13:51:44;24.60;70.20
3919;DHT22;1974;48.670;8.994;2023-10-13T13:54:18;24.60;68.90
3919;DHT22;1974;48.670;8.994;2023-10-13T13:56:44;24.60;69.80
3919;DHT22;1974;48.670;8.994;2023-10-13T13:59:11;24.60;69.60
3919;DHT22;1974;48.670;8.994;2023-10-13T14:01:41;24.60;68.90
3919;DHT22;1974;48.670;8.994;2023-10-13T14:04:10;24.40;66.70
3919;DHT22;1974;48.670;8.994;2023-10-13T14:06:37;24.60;68.10
3919;DHT22;1974;48.670;8.994;2023-10-13T14:09:05;24.60;66.70
3919;DHT22;1974;48.670;8.994;2023-10-13T14:11:41;24.60;68.90
3919;DHT22;1974;48.670;8.994;2023-10-13T14:14:26;24.50;66.60
3919;DHT22;1974;48.670;8.994;2023-10-13T14:16:59;24.50;66.10
3919;DHT22;1974;48.670;8.994;2023-10-13T14:19:32;24.50;66.70
3919;DHT22;1974;48.670;8.994;2023-10-13T14:21:59;24.50;67.70
3919;DHT22;1974;48.670;8.994;2023-10-13T14:24:34;24.40;68.10
3919;DHT22;1974;48.670;8.994;2023-10-13T14:27:09;24.40;67.30
3919;DHT22;1974;48.670;8.994;2023-10-13T14:29:38;24.40;67.50
3919;DHT22;1974;48.670;8.994;2023-10-13T14:32:07;24.40;67.40
3919;DHT22;1974;48.670;8.994;2023-10-13T14:34:38;24.30;67.70
3919;DHT22;1974;48.670;8.994;2023-10-13T14:37:05;24.30;67.10
3919;DHT22;1974;48.670;8.994;2023-10-13T14:39:33;24.30;65.30
3919;DHT22;1974;48.670;8.994;2023-10-13T14:42:02;24.20;65.90
3919;DHT22;1974;48.670;8.994;2023-10-13T14:44:31;24.20;66.60
3919;DHT22;1974;48.670;8.994;2023-10-13T14:46:58;24.10;66.70
3919;DHT22;1974;48.670;8.994;2023-10-13T14:49:25;24.10;65.20
3919;DHT22;1974;48.670;8.994;2023-10-13T14:51:51;24.00;65.70
3919;DHT22;1974;48.670;8.994;2023-10-13T14:54:20;24.00;66.00
3919;DHT22;1974;48.670;8.994;2023-10-13T14:56:59;24.00;67.70
3919;DHT22;1974;48.670;8.994;2023-10-13T14:59:27;23.90;69.40
3919;DHT22;1974;48.670;8.994;2023-10-13T15:01:59;23.80;67.50
3919;DHT22;1974;48.670;8.994;2023-10-13T15:04:26;23.80;67.90
3919;DHT22;1974;48.670;8.994;2023-10-13T15:06:54;23.80;68.30
3919;DHT22;1974;48.670;8.994;2023-10-13T15:09:21;23.60;70.10
3919;DHT22;1974;48.670;8.994;2023-10-13T15:11:50;23.60;70.90
3919;DHT22;1974;48.670;8.994;2023-10-13T15:14:21;23.50;68.80
3919;DHT22;1974;48.670;8.994;2023-10-13T15:16:48;23.60;68.70
3919;DHT22;1974;48.670;8.994;2023-10-13T15:19:17;23.50;69.00
3919;DHT22;1974;48.670;8.994;2023-10-13T15:21:44;23.40;68.00
3919;DHT22;1974;48.670;8.994;2023-10-13T15:24:15;23.40;68.90
3919;DHT22;1974;48.670;8.994;2023-10-13T15:26:42;23.40;69.00
3919;DHT22;1974;48.670;8.994;2023-10-13T15:29:14;23.40;65.80
3919;DHT22;1974;48.670;8.994;2023-10-13T15:31:43;23.40;68.10
3919;DHT22;1974;48.670;8.994;2023-10-13T15:34:30;23.30;69.20
3919;DHT22;1974;48.670;8.994;2023-10-13T15:36:59;23.30;68.50
3919;DHT22;1974;48.670;8.994;2023-10-13T15:39:26;23.40;69.60
3919;DHT22;1974;48.670;8.994;2023-10-13T15:41:54;23.20;70.00
3919;DHT22;1974;48.670;8.994;2023-10-13T15:44:24;23.10;72.00
3919;DHT22;1974;48.670;8.994;2023-10-13T15:46:55;22.90;70.70
3919;DHT22;1974;48.670;8.994;2023-10-13T15:49:22;22.90;71.20
3919;DHT22;1974;48.670;8.994;2023-10-13T15:51:50;22.90;66.40
3919;DHT22;1974;48.670;8.994;2023-10-13T15:54:17;23.00;65.00
3919;DHT22;1974;48.670;8.994;2023-10-13T15:56:44;23.00;66.40
3919;DHT22;1974;48.670;8.994;2023-10-13T15:59:10;23.00;65.20
3919;DHT22;1974;48.670;8.994;2023-10-13T16:01:37;23.00;66.00
3919;DHT22;1974;48.670;8.994;2023-10-13T16:04:07;23.00;65.60
3919;DHT22;1974;48.670;8.994;2023-10-13T16:06:37;23.00;66.30
3919;DHT22;1974;48.670;8.994;2023-10-13T16:09:04;22.80;66.60
3919;DHT22;1974;48.670;8.994;2023-10-13T16:11:39;22.80;68.30
3919;DHT22;1974;48.670;8.994;2023-10-13T16:14:08;22.80;68.00
3919;DHT22;1974;48.670;8.994;2023-10-13T16:16:36;22.70;67.20
3919;DHT22;1974;48.670;8.994;2023-10-13T16:19:03;22.70;68.90
3919;DHT22;1974;48.670;8.994;2023-10-13T16:21:32;22.60;69.40
3919;DHT22;1974;48.670;8.994;2023-10-13T16:24:00;22.50;69.50
3919;DHT22;1974;48.670;8.994;2023-10-13T16:26:26;22.50;69.10
3919;DHT22;1974;48.670;8.994;2023-10-13T16:28:56;22.40;69.00
3919;DHT22;1974;48.670;8.994;2023-10-13T16:31:24;22.40;68.40
3919;DHT22;1974;48.670;8.994;2023-10-13T16:33:53;22.30;68.00
3919;DHT22;1974;48.670;8.994;2023-10-13T16:36:20;22.30;69.50
3919;DHT22;1974;48.670;8.994;2023-10-13T16:38:49;22.20;70.50
3919;DHT22;1974;48.670;8.994;2023-10-13T16:41:16;22.30;69.90